Terminal Aerodrome Forecast
Issued by NWS Charleston, WV

Home | Current Version | Previous Version | Text Only | Print | Product List | Glossary On
Versions: 1 2 3 4 5 6 7 8 9 10 11 12 13 14 15 16 17 18 19 20 21 22 23 24 25 26 27 28
000
FTUS41 KRLX 291344 AAA
TAFCRW
TAF AMD
KCRW 291344Z 2914/3012 22003KT 6SM BR BKN008 BKN100
     FM291500 23003KT P6SM SCT008 SCT100
     FM291530 26004KT P6SM SCT035
     FM300300 00000KT P6SM BKN040
     FM300500 00000KT 6SM BR VCTS BKN050CB
     FM300900 00000KT 3SM BR VCTS BKN045CB=

USA.gov is the U.S. government's official web portal to all federal, state and local government web resources and services.